METAR Data
IDs: Format: Raw Decoded Include TAF

Data at: 0809 UTC 10 Dec 2022

KHWD 100754Z AUTO 19008KT 10SM FEW038 OVC100 12/06 A2999 RMK AO2 SLP166 T01170056 401330061
No TAF found for KHWD

KBFL 100754Z AUTO 12004KT 10SM CLR 08/02 A3009 RMK AO2 SLP188 T00780017 401670044

KBFL 100520Z 1006/1106 07006KT P6SM FEW250
  FM101800 15014G21KT P6SM BKN100
  FM110000 15014G21KT P6SM OVC050
  FM110100 14025G38KT P6SM OVC050


No METAR found for KIFP

KIFP 100532Z 1006/1106 VRB04KT P6SM FEW250
  FM102100 19007KT P6SM SCT250